sensor_id;sensor_type;location;lat;lon;timestamp;noise_LAeq;noise_LA_min;noise_LA_max;noise_LA01;noise_LA95
71030;Laerm;63723;51.436;5.976;2023-02-28T00:00:07;49.56;48.24;50.58;;
71030;Laerm;63723;51.436;5.976;2023-02-28T00:00:22;49.61;48.27;50.67;;
71030;Laerm;63723;51.436;5.976;2023-02-28T00:00:32;49.56;48.47;50.73;;
71030;Laerm;63723;51.436;5.976;2023-02-28T00:00:43;49.53;48.44;50.38;;
71030;Laerm;63723;51.436;5.976;2023-02-28T00:00:53;49.53;48.54;50.45;;
71030;Laerm;63723;51.436;5.976;2023-02-28T00:01:03;49.58;48.22;50.54;;
71030;Laerm;63723;51.436;5.976;2023-02-28T00:01:14;49.51;48.41;50.51;;
71030;Laerm;63723;51.436;5.976;2023-02-28T00:01:24;49.53;48.44;50.85;;
71030;Laerm;63723;51.436;5.976;2023-02-28T00:01:35;49.51;48.12;50.48;;
71030;Laerm;63723;51.436;5.976;2023-02-28T00:01:45;49.53;48.45;50.58;;
71030;Laerm;63723;51.436;5.976;2023-02-28T00:01:55;49.53;48.47;50.53;;
71030;Laerm;63723;51.436;5.976;2023-02-28T00:02:06;49.54;48.41;51.02;;
71030;Laerm;63723;51.436;5.976;2023-02-28T00:02:16;49.54;48.50;50.72;;
71030;Laerm;63723;51.436;5.976;2023-02-28T00:02:27;49.53;48.53;50.37;;
71030;Laerm;63723;51.436;5.976;2023-02-28T00:02:38;49.52;48.41;50.54;;
71030;Laerm;63723;51.436;5.976;2023-02-28T00:02:49;49.51;48.60;50.54;;
71030;Laerm;63723;51.436;5.976;2023-02-28T00:02:59;49.53;48.15;50.82;;
71030;Laerm;63723;51.436;5.976;2023-02-28T00:03:09;49.60;48.24;50.60;;
71030;Laerm;63723;51.436;5.976;2023-02-28T00:03:20;49.63;48.56;54.23;;
71030;Laerm;63723;51.436;5.976;2023-02-28T00:03:30;49.58;48.38;50.76;;
71030;Laerm;63723;51.436;5.976;2023-02-28T00:03:45;49.59;48.44;50.69;;
71030;Laerm;63723;51.436;5.976;2023-02-28T00:03:55;49.64;48.42;50.63;;
71030;Laerm;63723;51.436;5.976;2023-02-28T00:04:05;49.59;48.46;50.78;;
71030;Laerm;63723;51.436;5.976;2023-02-28T00:04:16;49.61;48.68;50.42;;
71030;Laerm;63723;51.436;5.976;2023-02-28T00:04:26;49.61;48.51;50.63;;
71030;Laerm;63723;51.436;5.976;2023-02-28T00:04:36;49.59;48.23;50.56;;
71030;Laerm;63723;51.436;5.976;2023-02-28T00:04:47;49.60;48.44;50.62;;
71030;Laerm;63723;51.436;5.976;2023-02-28T00:05:11;49.63;48.48;50.60;;
71030;Laerm;63723;51.436;5.976;2023-02-28T00:05:22;49.68;48.67;54.35;;
71030;Laerm;63723;51.436;5.976;2023-02-28T00:05:33;49.58;48.41;50.82;;
71030;Laerm;63723;51.436;5.976;2023-02-28T00:05:43;49.59;48.62;50.71;;
71030;Laerm;63723;51.436;5.976;2023-02-28T00:05:53;49.63;48.44;50.84;;
71030;Laerm;63723;51.436;5.976;2023-02-28T00:06:04;49.62;48.62;54.61;;
71030;Laerm;63723;51.436;5.976;2023-02-28T00:06:15;49.61;47.97;50.59;;
71030;Laerm;63723;51.436;5.976;2023-02-28T00:06:25;49.60;48.59;50.66;;
71030;Laerm;63723;51.436;5.976;2023-02-28T00:06:36;49.63;48.34;50.71;;
71030;Laerm;63723;51.436;5.976;2023-02-28T00:06:46;49.62;48.41;50.65;;
71030;Laerm;63723;51.436;5.976;2023-02-28T00:06:56;49.64;48.39;51.06;;
71030;Laerm;63723;51.436;5.976;2023-02-28T00:07:07;49.61;48.39;50.50;;
71030;Laerm;63723;51.436;5.976;2023-02-28T00:07:17;49.59;48.48;50.69;;
71030;Laerm;63723;51.436;5.976;2023-02-28T00:07:27;49.65;48.61;50.78;;
71030;Laerm;63723;51.436;5.976;2023-02-28T00:07:38;49.61;48.70;50.74;;
71030;Laerm;63723;51.436;5.976;2023-02-28T00:07:48;49.61;48.42;50.57;;
71030;Laerm;63723;51.436;5.976;2023-02-28T00:07:59;49.63;48.30;50.65;;
71030;Laerm;63723;51.436;5.976;2023-02-28T00:08:09;49.60;48.76;50.61;;
71030;Laerm;63723;51.436;5.976;2023-02-28T00:08:19;49.66;48.62;50.73;;
71030;Laerm;63723;51.436;5.976;2023-02-28T00:08:30;49.65;48.63;50.72;;
71030;Laerm;63723;51.436;5.976;2023-02-28T00:08:40;49.60;48.51;50.73;;
71030;Laerm;63723;51.436;5.976;2023-02-28T00:08:50;49.64;48.49;51.26;;
71030;Laerm;63723;51.436;5.976;2023-02-28T00:09:01;49.65;48.60;50.89;;
71030;Laerm;63723;51.436;5.976;2023-02-28T00:09:11;49.60;48.66;50.49;;
71030;Laerm;63723;51.436;5.976;2023-02-28T00:09:22;49.64;48.51;50.56;;
71030;Laerm;63723;51.436;5.976;2023-02-28T00:09:32;49.61;48.72;50.68;;
71030;Laerm;63723;51.436;5.976;2023-02-28T00:09:42;49.61;48.50;50.69;;
71030;Laerm;63723;51.436;5.976;2023-02-28T00:09:52;49.61;48.55;50.84;;
71030;Laerm;63723;51.436;5.976;2023-02-28T00:10:04;49.55;48.58;50.74;;
71030;Laerm;63723;51.436;5.976;2023-02-28T00:10:17;49.59;48.58;50.85;;
71030;Laerm;63723;51.436;5.976;2023-02-28T00:10:31;49.61;48.56;50.77;;
71030;Laerm;63723;51.436;5.976;2023-02-28T00:10:41;49.60;48.49;50.62;;
71030;Laerm;63723;51.436;5.976;2023-02-28T00:10:52;49.56;48.51;50.76;;
71030;Laerm;63723;51.436;5.976;2023-02-28T00:11:03;49.54;48.49;50.51;;
71030;Laerm;63723;51.436;5.976;2023-02-28T00:11:14;49.60;48.52;51.65;;
71030;Laerm;63723;51.436;5.976;2023-02-28T00:11:24;49.55;48.44;50.35;;
71030;Laerm;63723;51.436;5.976;2023-02-28T00:11:34;49.60;48.50;50.67;;
71030;Laerm;63723;51.436;5.976;2023-02-28T00:11:45;49.52;48.31;50.54;;
71030;Laerm;63723;51.436;5.976;2023-02-28T00:11:55;49.55;48.45;50.68;;
71030;Laerm;63723;51.436;5.976;2023-02-28T00:12:05;49.55;48.41;54.47;;
71030;Laerm;63723;51.436;5.976;2023-02-28T00:12:20;49.53;48.53;50.75;;
71030;Laerm;63723;51.436;5.976;2023-02-28T00:12:30;49.51;48.37;50.51;;
71030;Laerm;63723;51.436;5.976;2023-02-28T00:12:40;49.56;48.45;50.51;;
71030;Laerm;63723;51.436;5.976;2023-02-28T00:12:51;49.53;48.21;50.64;;
71030;Laerm;63723;51.436;5.976;2023-02-28T00:13:02;49.49;48.32;50.50;;
71030;Laerm;63723;51.436;5.976;2023-02-28T00:13:13;49.51;48.49;50.52;;
71030;Laerm;63723;51.436;5.976;2023-02-28T00:13:23;49.56;48.65;50.57;;
71030;Laerm;63723;51.436;5.976;2023-02-28T00:13:35;49.49;48.17;50.39;;
71030;Laerm;63723;51.436;5.976;2023-02-28T00:13:46;49.49;48.18;50.45;;
71030;Laerm;63723;51.436;5.976;2023-02-28T00:13:56;49.52;48.48;50.51;;
71030;Laerm;63723;51.436;5.976;2023-02-28T00:14:07;49.51;48.35;50.38;;
71030;Laerm;63723;51.436;5.976;2023-02-28T00:14:17;49.49;48.12;50.49;;
71030;Laerm;63723;51.436;5.976;2023-02-28T00:14:29;49.52;48.44;50.54;;
71030;Laerm;63723;51.436;5.976;2023-02-28T00:14:40;49.48;48.44;50.41;;
71030;Laerm;63723;51.436;5.976;2023-02-28T00:14:50;49.56;48.52;50.42;;
71030;Laerm;63723;51.436;5.976;2023-02-28T00:15:01;49.49;48.34;51.49;;
71030;Laerm;63723;51.436;5.976;2023-02-28T00:15:11;49.52;48.46;50.56;;
71030;Laerm;63723;51.436;5.976;2023-02-28T00:15:22;49.55;48.51;50.46;;
71030;Laerm;63723;51.436;5.976;2023-02-28T00:15:33;49.51;48.35;50.43;;
71030;Laerm;63723;51.436;5.976;2023-02-28T00:15:43;49.56;48.47;51.25;;
71030;Laerm;63723;51.436;5.976;2023-02-28T00:15:59;49.51;48.39;52.02;;
71030;Laerm;63723;51.436;5.976;2023-02-28T00:16:11;49.55;48.51;50.66;;
71030;Laerm;63723;51.436;5.976;2023-02-28T00:16:23;49.51;48.32;50.51;;
71030;Laerm;63723;51.436;5.976;2023-02-28T00:16:33;49.48;48.16;50.52;;
71030;Laerm;63723;51.436;5.976;2023-02-28T00:16:43;49.46;48.52;50.82;;
71030;Laerm;63723;51.436;5.976;2023-02-28T00:16:54;49.54;48.31;50.32;;
71030;Laerm;63723;51.436;5.976;2023-02-28T00:17:04;49.50;48.60;50.39;;
71030;Laerm;63723;51.436;5.976;2023-02-28T00:17:14;49.51;48.09;50.41;;
71030;Laerm;63723;51.436;5.976;2023-02-28T00:17:26;49.51;48.41;50.71;;
71030;Laerm;63723;51.436;5.976;2023-02-28T00:17:36;49.53;48.41;50.53;;
71030;Laerm;63723;51.436;5.976;2023-02-28T00:17:47;49.56;48.34;50.56;;
71030;Laerm;63723;51.436;5.976;2023-02-28T00:17:57;49.49;48.36;51.61;;
71030;Laerm;63723;51.436;5.976;2023-02-28T00:18:07;49.46;48.25;50.38;;
71030;Laerm;63723;51.436;5.976;2023-02-28T00:18:18;49.51;48.43;50.69;;
71030;Laerm;63723;51.436;5.976;2023-02-28T00:18:28;49.53;48.53;50.48;;
71030;Laerm;63723;51.436;5.976;2023-02-28T00:18:38;49.48;48.13;50.38;;
71030;Laerm;63723;51.436;5.976;2023-02-28T00:18:49;49.53;48.45;50.48;;
71030;Laerm;63723;51.436;5.976;2023-02-28T00:18:59;49.54;48.30;50.94;;
71030;Laerm;63723;51.436;5.976;2023-02-28T00:19:09;49.52;48.44;50.65;;
71030;Laerm;63723;51.436;5.976;2023-02-28T00:19:19;49.51;48.62;50.60;;
71030;Laerm;63723;51.436;5.976;2023-02-28T00:19:30;49.53;48.44;50.49;;
71030;Laerm;63723;51.436;5.976;2023-02-28T00:19:40;49.48;48.53;50.49;;
71030;Laerm;63723;51.436;5.976;2023-02-28T00:19:50;49.54;48.69;50.72;;
71030;Laerm;63723;51.436;5.976;2023-02-28T00:20:01;49.50;48.57;52.66;;
71030;Laerm;63723;51.436;5.976;2023-02-28T00:20:12;49.49;48.49;50.85;;
71030;Laerm;63723;51.436;5.976;2023-02-28T00:20:23;49.55;48.23;51.16;;
71030;Laerm;63723;51.436;5.976;2023-02-28T00:20:34;49.54;48.37;50.84;;
71030;Laerm;63723;51.436;5.976;2023-02-28T00:20:44;49.50;47.89;50.65;;
71030;Laerm;63723;51.436;5.976;2023-02-28T00:20:55;49.55;48.42;50.72;;
71030;Laerm;63723;51.436;5.976;2023-02-28T00:21:05;49.57;48.44;50.58;;
71030;Laerm;63723;51.436;5.976;2023-02-28T00:21:16;49.60;48.48;50.83;;
71030;Laerm;63723;51.436;5.976;2023-02-28T00:21:27;49.57;48.47;50.56;;
71030;Laerm;63723;51.436;5.976;2023-02-28T00:21:37;49.60;48.70;50.94;;
71030;Laerm;63723;51.436;5.976;2023-02-28T00:21:50;49.72;48.44;53.62;;
71030;Laerm;63723;51.436;5.976;2023-02-28T00:22:00;49.54;48.41;50.45;;
71030;Laerm;63723;51.436;5.976;2023-02-28T00:22:11;49.54;48.55;50.36;;
71030;Laerm;63723;51.436;5.976;2023-02-28T00:22:22;49.53;48.54;50.37;;
71030;Laerm;63723;51.436;5.976;2023-02-28T00:22:33;49.54;48.56;50.75;;
71030;Laerm;63723;51.436;5.976;2023-02-28T00:22:44;49.54;48.26;50.71;;
71030;Laerm;63723;51.436;5.976;2023-02-28T00:22:54;49.51;48.62;50.90;;
71030;Laerm;63723;51.436;5.976;2023-02-28T00:23:04;49.59;48.44;50.73;;
71030;Laerm;63723;51.436;5.976;2023-02-28T00:23:15;49.57;48.05;50.53;;
71030;Laerm;63723;51.436;5.976;2023-02-28T00:23:26;49.59;48.42;50.59;;
71030;Laerm;63723;51.436;5.976;2023-02-28T00:23:36;49.55;48.23;50.47;;
71030;Laerm;63723;51.436;5.976;2023-02-28T00:23:47;49.52;48.33;50.61;;
71030;Laerm;63723;51.436;5.976;2023-02-28T00:23:57;49.54;48.26;50.73;;
71030;Laerm;63723;51.436;5.976;2023-02-28T00:24:07;49.59;48.30;50.67;;
71030;Laerm;63723;51.436;5.976;2023-02-28T00:24:17;49.63;48.58;50.77;;
71030;Laerm;63723;51.436;5.976;2023-02-28T00:24:28;49.60;48.15;50.57;;
71030;Laerm;63723;51.436;5.976;2023-02-28T00:24:38;49.59;48.48;50.50;;
71030;Laerm;63723;51.436;5.976;2023-02-28T00:24:48;49.58;48.38;50.66;;
71030;Laerm;63723;51.436;5.976;2023-02-28T00:24:58;49.58;48.54;50.49;;
71030;Laerm;63723;51.436;5.976;2023-02-28T00:25:09;49.58;48.73;50.88;;
71030;Laerm;63723;51.436;5.976;2023-02-28T00:25:22;49.56;48.32;50.62;;
71030;Laerm;63723;51.436;5.976;2023-02-28T00:25:32;49.57;48.50;50.46;;
71030;Laerm;63723;51.436;5.976;2023-02-28T00:25:43;49.58;48.53;50.58;;
71030;Laerm;63723;51.436;5.976;2023-02-28T00:25:53;49.55;48.29;50.45;;
71030;Laerm;63723;51.436;5.976;2023-02-28T00:26:03;49.59;48.51;50.72;;
71030;Laerm;63723;51.436;5.976;2023-02-28T00:26:14;49.56;48.60;50.56;;
71030;Laerm;63723;51.436;5.976;2023-02-28T00:26:24;49.53;48.29;50.68;;
71030;Laerm;63723;51.436;5.976;2023-02-28T00:26:34;49.55;48.55;50.74;;
71030;Laerm;63723;51.436;5.976;2023-02-28T00:26:45;49.56;48.52;50.67;;
71030;Laerm;63723;51.436;5.976;2023-02-28T00:26:55;49.54;48.38;50.67;;
71030;Laerm;63723;51.436;5.976;2023-02-28T00:27:05;49.59;48.46;50.62;;
71030;Laerm;63723;51.436;5.976;2023-02-28T00:27:15;49.59;48.31;51.51;;
71030;Laerm;63723;51.436;5.976;2023-02-28T00:27:26;49.45;48.33;50.45;;
71030;Laerm;63723;51.436;5.976;2023-02-28T00:27:36;49.50;48.43;50.59;;
71030;Laerm;63723;51.436;5.976;2023-02-28T00:27:47;49.49;48.49;50.59;;
71030;Laerm;63723;51.436;5.976;2023-02-28T00:27:57;49.50;48.37;50.37;;
71030;Laerm;63723;51.436;5.976;2023-02-28T00:28:08;49.52;48.21;50.77;;
71030;Laerm;63723;51.436;5.976;2023-02-28T00:28:18;49.50;48.28;50.56;;
71030;Laerm;63723;51.436;5.976;2023-02-28T00:28:28;49.51;48.49;50.47;;
71030;Laerm;63723;51.436;5.976;2023-02-28T00:28:39;49.49;48.20;50.59;;
71030;Laerm;63723;51.436;5.976;2023-02-28T00:28:51;49.54;48.57;50.46;;
71030;Laerm;63723;51.436;5.976;2023-02-28T00:29:02;49.50;48.49;50.83;;
71030;Laerm;63723;51.436;5.976;2023-02-28T00:29:12;49.50;48.51;50.35;;
71030;Laerm;63723;51.436;5.976;2023-02-28T00:29:23;49.48;48.18;50.67;;
71030;Laerm;63723;51.436;5.976;2023-02-28T00:29:33;49.47;48.44;50.54;;
71030;Laerm;63723;51.436;5.976;2023-02-28T00:29:43;49.51;48.27;51.00;;
71030;Laerm;63723;51.436;5.976;2023-02-28T00:29:53;49.49;48.50;50.60;;
71030;Laerm;63723;51.436;5.976;2023-02-28T00:30:04;49.49;48.40;50.75;;
71030;Laerm;63723;51.436;5.976;2023-02-28T00:30:29;49.48;48.46;50.61;;
71030;Laerm;63723;51.436;5.976;2023-02-28T00:30:39;49.50;48.34;50.44;;
71030;Laerm;63723;51.436;5.976;2023-02-28T00:30:50;49.49;48.59;50.53;;
71030;Laerm;63723;51.436;5.976;2023-02-28T00:31:00;49.48;48.54;50.54;;
71030;Laerm;63723;51.436;5.976;2023-02-28T00:31:10;49.51;48.11;50.61;;
71030;Laerm;63723;51.436;5.976;2023-02-28T00:31:21;49.50;48.41;50.38;;
71030;Laerm;63723;51.436;5.976;2023-02-28T00:31:31;49.53;48.40;50.47;;
71030;Laerm;63723;51.436;5.976;2023-02-28T00:31:41;49.49;48.21;50.66;;
71030;Laerm;63723;51.436;5.976;2023-02-28T00:31:52;49.45;48.30;50.46;;
71030;Laerm;63723;51.436;5.976;2023-02-28T00:32:02;49.50;48.30;50.61;;
71030;Laerm;63723;51.436;5.976;2023-02-28T00:32:12;49.48;48.33;50.69;;
71030;Laerm;63723;51.436;5.976;2023-02-28T00:32:23;49.50;48.50;50.46;;
71030;Laerm;63723;51.436;5.976;2023-02-28T00:32:33;49.49;48.42;50.53;;
71030;Laerm;63723;51.436;5.976;2023-02-28T00:32:44;49.51;48.43;50.59;;
71030;Laerm;63723;51.436;5.976;2023-02-28T00:32:54;49.49;48.43;50.74;;
71030;Laerm;63723;51.436;5.976;2023-02-28T00:33:05;49.53;48.33;50.57;;
71030;Laerm;63723;51.436;5.976;2023-02-28T00:33:15;49.48;48.09;50.55;;
71030;Laerm;63723;51.436;5.976;2023-02-28T00:33:26;49.46;48.44;50.56;;
71030;Laerm;63723;51.436;5.976;2023-02-28T00:33:37;49.49;48.45;50.48;;
71030;Laerm;63723;51.436;5.976;2023-02-28T00:33:47;49.52;48.68;50.50;;
71030;Laerm;63723;51.436;5.976;2023-02-28T00:33:57;49.49;48.40;50.68;;
71030;Laerm;63723;51.436;5.976;2023-02-28T00:34:08;49.53;48.58;51.11;;
71030;Laerm;63723;51.436;5.976;2023-02-28T00:34:18;49.51;48.37;50.48;;
71030;Laerm;63723;51.436;5.976;2023-02-28T00:34:28;49.51;48.44;50.57;;
71030;Laerm;63723;51.436;5.976;2023-02-28T00:34:39;49.48;48.62;50.47;;
71030;Laerm;63723;51.436;5.976;2023-02-28T00:34:49;49.50;48.58;50.38;;
71030;Laerm;63723;51.436;5.976;2023-02-28T00:34:59;49.49;48.52;50.41;;
71030;Laerm;63723;51.436;5.976;2023-02-28T00:35:10;49.51;48.52;50.56;;
71030;Laerm;63723;51.436;5.976;2023-02-28T00:35:21;49.49;48.00;50.48;;
71030;Laerm;63723;51.436;5.976;2023-02-28T00:35:31;49.49;48.63;50.71;;
71030;Laerm;63723;51.436;5.976;2023-02-28T00:35:42;49.54;48.42;50.66;;
71030;Laerm;63723;51.436;5.976;2023-02-28T00:35:52;49.47;48.39;50.51;;
71030;Laerm;63723;51.436;5.976;2023-02-28T00:36:10;49.52;48.30;50.61;;
71030;Laerm;63723;51.436;5.976;2023-02-28T00:36:21;49.54;48.57;50.61;;
71030;Laerm;63723;51.436;5.976;2023-02-28T00:36:31;49.48;48.48;50.34;;
71030;Laerm;63723;51.436;5.976;2023-02-28T00:36:42;49.52;48.42;50.55;;
71030;Laerm;63723;51.436;5.976;2023-02-28T00:36:55;49.50;48.55;50.65;;
71030;Laerm;63723;51.436;5.976;2023-02-28T00:37:06;49.51;48.20;50.50;;
71030;Laerm;63723;51.436;5.976;2023-02-28T00:37:16;49.48;48.31;50.55;;
71030;Laerm;63723;51.436;5.976;2023-02-28T00:37:27;49.47;48.14;50.42;;
71030;Laerm;63723;51.436;5.976;2023-02-28T00:37:37;49.50;48.30;50.81;;
71030;Laerm;63723;51.436;5.976;2023-02-28T00:37:47;49.48;48.54;50.69;;
71030;Laerm;63723;51.436;5.976;2023-02-28T00:37:58;49.47;48.43;50.59;;
71030;Laerm;63723;51.436;5.976;2023-02-28T00:38:09;49.52;48.55;50.62;;
71030;Laerm;63723;51.436;5.976;2023-02-28T00:38:19;49.55;48.32;50.61;;
71030;Laerm;63723;51.436;5.976;2023-02-28T00:38:29;49.53;48.35;50.55;;
71030;Laerm;63723;51.436;5.976;2023-02-28T00:38:40;49.49;48.42;50.68;;
71030;Laerm;63723;51.436;5.976;2023-02-28T00:38:50;49.51;48.49;50.49;;
71030;Laerm;63723;51.436;5.976;2023-02-28T00:39:00;49.54;48.57;50.48;;
71030;Laerm;63723;51.436;5.976;2023-02-28T00:39:11;49.50;48.31;50.49;;
71030;Laerm;63723;51.436;5.976;2023-02-28T00:39:21;49.48;48.51;50.40;;
71030;Laerm;63723;51.436;5.976;2023-02-28T00:39:33;49.49;48.40;50.43;;
71030;Laerm;63723;51.436;5.976;2023-02-28T00:39:44;49.50;48.32;50.59;;
71030;Laerm;63723;51.436;5.976;2023-02-28T00:39:54;49.48;48.36;50.58;;
71030;Laerm;63723;51.436;5.976;2023-02-28T00:40:05;49.75;48.56;50.72;;
71030;Laerm;63723;51.436;5.976;2023-02-28T00:40:16;49.82;48.73;50.79;;
71030;Laerm;63723;51.436;5.976;2023-02-28T00:40:26;49.81;48.77;51.01;;
71030;Laerm;63723;51.436;5.976;2023-02-28T00:40:36;49.78;48.53;50.80;;
71030;Laerm;63723;51.436;5.976;2023-02-28T00:40:47;49.76;48.70;50.72;;
71030;Laerm;63723;51.436;5.976;2023-02-28T00:40:57;49.73;48.77;50.76;;
71030;Laerm;63723;51.436;5.976;2023-02-28T00:41:08;49.70;48.49;51.01;;
71030;Laerm;63723;51.436;5.976;2023-02-28T00:41:19;49.76;48.54;50.79;;
71030;Laerm;63723;51.436;5.976;2023-02-28T00:41:29;49.72;48.66;50.90;;
71030;Laerm;63723;51.436;5.976;2023-02-28T00:41:40;49.70;48.47;50.57;;
71030;Laerm;63723;51.436;5.976;2023-02-28T00:41:50;49.73;48.80;50.81;;
71030;Laerm;63723;51.436;5.976;2023-02-28T00:42:00;49.72;48.66;50.61;;
71030;Laerm;63723;51.436;5.976;2023-02-28T00:42:11;49.73;48.84;50.69;;
71030;Laerm;63723;51.436;5.976;2023-02-28T00:42:21;49.77;48.90;50.73;;
71030;Laerm;63723;51.436;5.976;2023-02-28T00:42:32;49.78;48.53;51.03;;
71030;Laerm;63723;51.436;5.976;2023-02-28T00:42:42;49.72;48.70;50.70;;
71030;Laerm;63723;51.436;5.976;2023-02-28T00:42:53;49.75;48.72;50.71;;
71030;Laerm;63723;51.436;5.976;2023-02-28T00:43:03;49.72;48.14;50.87;;
71030;Laerm;63723;51.436;5.976;2023-02-28T00:43:14;49.78;48.65;50.94;;
71030;Laerm;63723;51.436;5.976;2023-02-28T00:43:24;49.78;48.71;50.69;;
71030;Laerm;63723;51.436;5.976;2023-02-28T00:43:35;49.75;48.76;50.83;;
71030;Laerm;63723;51.436;5.976;2023-02-28T00:43:46;49.72;48.48;50.87;;
71030;Laerm;63723;51.436;5.976;2023-02-28T00:43:56;49.71;48.62;51.01;;
71030;Laerm;63723;51.436;5.976;2023-02-28T00:44:06;49.72;48.53;50.81;;
71030;Laerm;63723;51.436;5.976;2023-02-28T00:44:16;49.75;48.90;50.81;;
71030;Laerm;63723;51.436;5.976;2023-02-28T00:44:27;49.75;48.60;50.77;;
71030;Laerm;63723;51.436;5.976;2023-02-28T00:44:37;49.74;48.59;50.71;;
71030;Laerm;63723;51.436;5.976;2023-02-28T00:44:47;49.80;48.77;50.85;;
71030;Laerm;63723;51.436;5.976;2023-02-28T00:44:58;49.75;48.67;50.77;;
71030;Laerm;63723;51.436;5.976;2023-02-28T00:45:08;49.72;48.83;50.71;;
71030;Laerm;63723;51.436;5.976;2023-02-28T00:45:19;49.76;48.90;50.67;;
71030;Laerm;63723;51.436;5.976;2023-02-28T00:45:29;49.74;48.66;51.67;;
71030;Laerm;63723;51.436;5.976;2023-02-28T00:45:39;49.74;48.66;50.82;;
71030;Laerm;63723;51.436;5.976;2023-02-28T00:45:50;49.73;48.89;50.69;;
71030;Laerm;63723;51.436;5.976;2023-02-28T00:46:00;49.76;48.53;50.74;;
71030;Laerm;63723;51.436;5.976;2023-02-28T00:46:11;49.78;48.71;50.73;;
71030;Laerm;63723;51.436;5.976;2023-02-28T00:46:21;49.75;48.58;50.96;;
71030;Laerm;63723;51.436;5.976;2023-02-28T00:46:31;49.79;48.67;50.80;;
71030;Laerm;63723;51.436;5.976;2023-02-28T00:46:41;49.72;48.56;50.66;;
71030;Laerm;63723;51.436;5.976;2023-02-28T00:46:52;49.76;48.31;51.05;;
71030;Laerm;63723;51.436;5.976;2023-02-28T00:47:04;49.73;48.92;50.58;;
71030;Laerm;63723;51.436;5.976;2023-02-28T00:47:14;49.77;48.54;50.74;;
71030;Laerm;63723;51.436;5.976;2023-02-28T00:47:24;49.79;48.50;50.77;;
71030;Laerm;63723;51.436;5.976;2023-02-28T00:47:35;49.71;48.83;50.54;;
71030;Laerm;63723;51.436;5.976;2023-02-28T00:47:45;49.69;48.38;50.65;;
71030;Laerm;63723;51.436;5.976;2023-02-28T00:47:56;49.71;48.39;50.71;;
71030;Laerm;63723;51.436;5.976;2023-02-28T00:48:06;49.71;48.74;51.10;;
71030;Laerm;63723;51.436;5.976;2023-02-28T00:48:17;49.66;48.77;50.79;;
71030;Laerm;63723;51.436;5.976;2023-02-28T00:48:27;49.71;48.44;50.74;;
71030;Laerm;63723;51.436;5.976;2023-02-28T00:48:37;49.64;48.30;51.18;;
71030;Laerm;63723;51.436;5.976;2023-02-28T00:48:47;49.64;48.35;50.50;;
71030;Laerm;63723;51.436;5.976;2023-02-28T00:48:58;49.65;48.45;50.74;;
71030;Laerm;63723;51.436;5.976;2023-02-28T00:49:08;49.63;48.51;50.75;;
71030;Laerm;63723;51.436;5.976;2023-02-28T00:49:18;49.70;48.57;50.70;;
71030;Laerm;63723;51.436;5.976;2023-02-28T00:49:29;49.66;48.39;50.79;;
71030;Laerm;63723;51.436;5.976;2023-02-28T00:49:39;49.68;48.53;50.91;;
71030;Laerm;63723;51.436;5.976;2023-02-28T00:49:49;49.71;48.74;50.68;;
71030;Laerm;63723;51.436;5.976;2023-02-28T00:50:00;49.69;48.59;51.13;;
71030;Laerm;63723;51.436;5.976;2023-02-28T00:50:10;49.68;48.62;50.74;;
71030;Laerm;63723;51.436;5.976;2023-02-28T00:50:20;49.64;48.46;50.84;;
71030;Laerm;63723;51.436;5.976;2023-02-28T00:50:31;49.65;48.62;50.98;;
71030;Laerm;63723;51.436;5.976;2023-02-28T00:50:41;49.68;48.71;51.14;;
71030;Laerm;63723;51.436;5.976;2023-02-28T00:50:51;49.61;48.67;50.70;;
71030;Laerm;63723;51.436;5.976;2023-02-28T00:51:02;49.65;48.84;50.51;;
71030;Laerm;63723;51.436;5.976;2023-02-28T00:51:12;49.58;48.54;51.10;;
71030;Laerm;63723;51.436;5.976;2023-02-28T00:51:22;49.68;48.59;50.58;;
71030;Laerm;63723;51.436;5.976;2023-02-28T00:51:33;49.68;48.58;50.71;;
71030;Laerm;63723;51.436;5.976;2023-02-28T00:51:43;49.62;48.57;51.09;;
71030;Laerm;63723;51.436;5.976;2023-02-28T00:51:54;49.67;48.57;51.00;;
71030;Laerm;63723;51.436;5.976;2023-02-28T00:52:04;49.67;48.72;50.72;;
71030;Laerm;63723;51.436;5.976;2023-02-28T00:52:14;49.66;48.62;50.78;;
71030;Laerm;63723;51.436;5.976;2023-02-28T00:52:25;49.64;48.62;50.59;;
71030;Laerm;63723;51.436;5.976;2023-02-28T00:52:35;49.68;48.76;50.79;;
71030;Laerm;63723;51.436;5.976;2023-02-28T00:52:46;49.68;48.52;50.91;;
71030;Laerm;63723;51.436;5.976;2023-02-28T00:52:56;49.69;48.71;50.70;;
71030;Laerm;63723;51.436;5.976;2023-02-28T00:53:06;49.66;48.67;50.64;;
71030;Laerm;63723;51.436;5.976;2023-02-28T00:53:17;49.68;48.55;50.62;;
71030;Laerm;63723;51.436;5.976;2023-02-28T00:53:27;49.70;48.62;50.90;;
71030;Laerm;63723;51.436;5.976;2023-02-28T00:53:37;49.71;48.56;51.25;;
71030;Laerm;63723;51.436;5.976;2023-02-28T00:53:48;49.67;48.60;50.69;;
71030;Laerm;63723;51.436;5.976;2023-02-28T00:53:58;49.65;48.48;50.93;;
71030;Laerm;63723;51.436;5.976;2023-02-28T00:54:08;49.66;48.20;50.61;;
71030;Laerm;63723;51.436;5.976;2023-02-28T00:54:19;49.70;48.73;50.76;;
71030;Laerm;63723;51.436;5.976;2023-02-28T00:54:29;49.67;48.52;50.76;;
71030;Laerm;63723;51.436;5.976;2023-02-28T00:54:39;49.67;48.61;50.81;;
71030;Laerm;63723;51.436;5.976;2023-02-28T00:54:50;49.65;48.49;50.91;;
71030;Laerm;63723;51.436;5.976;2023-02-28T00:55:00;49.67;48.49;51.53;;
71030;Laerm;63723;51.436;5.976;2023-02-28T00:55:10;49.66;48.66;51.33;;
71030;Laerm;63723;51.436;5.976;2023-02-28T00:55:20;49.65;48.53;50.73;;
71030;Laerm;63723;51.436;5.976;2023-02-28T00:55:31;49.68;48.52;50.68;;
71030;Laerm;63723;51.436;5.976;2023-02-28T00:55:41;49.65;48.56;51.41;;
71030;Laerm;63723;51.436;5.976;2023-02-28T00:55:51;49.69;48.69;50.86;;
71030;Laerm;63723;51.436;5.976;2023-02-28T00:56:02;49.70;48.64;51.83;;
71030;Laerm;63723;51.436;5.976;2023-02-28T00:56:12;49.66;48.74;50.83;;
71030;Laerm;63723;51.436;5.976;2023-02-28T00:56:23;49.68;48.43;50.90;;
71030;Laerm;63723;51.436;5.976;2023-02-28T00:56:33;49.67;48.74;50.51;;
71030;Laerm;63723;51.436;5.976;2023-02-28T00:56:44;49.65;48.65;50.66;;
71030;Laerm;63723;51.436;5.976;2023-02-28T00:56:55;49.63;48.49;50.64;;
71030;Laerm;63723;51.436;5.976;2023-02-28T00:57:06;49.71;48.53;51.79;;
71030;Laerm;63723;51.436;5.976;2023-02-28T00:57:16;49.64;48.51;50.52;;
71030;Laerm;63723;51.436;5.976;2023-02-28T00:57:26;49.61;48.64;50.53;;
71030;Laerm;63723;51.436;5.976;2023-02-28T00:57:36;49.63;48.41;50.55;;
71030;Laerm;63723;51.436;5.976;2023-02-28T00:57:47;49.69;48.52;50.79;;
71030;Laerm;63723;51.436;5.976;2023-02-28T00:57:57;49.67;48.54;50.78;;
71030;Laerm;63723;51.436;5.976;2023-02-28T00:58:07;49.65;48.48;51.38;;
71030;Laerm;63723;51.436;5.976;2023-02-28T00:58:18;49.60;48.26;51.21;;
71030;Laerm;63723;51.436;5.976;2023-02-28T00:58:28;49.60;48.46;50.66;;
71030;Laerm;63723;51.436;5.976;2023-02-28T00:58:39;49.61;48.40;50.52;;
71030;Laerm;63723;51.436;5.976;2023-02-28T00:58:49;49.58;48.33;50.60;;
71030;Laerm;63723;51.436;5.976;2023-02-28T00:58:59;49.55;48.25;50.58;;
71030;Laerm;63723;51.436;5.976;2023-02-28T00:59:09;49.67;48.75;50.65;;
71030;Laerm;63723;51.436;5.976;2023-02-28T00:59:21;49.81;48.84;50.88;;
71030;Laerm;63723;51.436;5.976;2023-02-28T00:59:31;49.67;48.62;50.75;;
71030;Laerm;63723;51.436;5.976;2023-02-28T00:59:41;49.61;48.22;51.20;;